Kirwin, Kansas
Current Conditions -  °F | °C
As of 10:53 AM on Wednesday 22 Oct 2014 (Local Time) from KHLC Reporting Station
Light Rain Light Rain  
Wind Chill: 65°   Ceiling: 8000
Heat Index: 65°   Visibility: 10mi
Dew Point: 54°   Wind: 13mph
Humidity: 68%   Direction: 190°S
Pressure: 30.03"   Gusts: NA
Location:  39.67°N, 99.12°W
Report Text: KHLC 221553Z AUTO 19011KT 10SM -RA OVC080 18/12 A3003 RMK AO2 RAB51 SLP154 P0000 T01830122
Loading
Personal Weather Stations






























Interactive Weather Map New forecast layout! Learn more

10-Day Weather Forecast

Advertisements
Track Severe Weather on mobile